Time;durP1;ratioP1;P1;durP2;ratioP2;P2;SDS_P1;SDS_P2;PMS_P1;PMS_P2;Temp;Humidity;BMP_temperature;BMP_pressure;BME280_temperature;BME280_humidity;BME280_pressure;Samples;Min_cycle;Max_cycle;Signal;HPM_P1;HPM_P2
2022/10/21 00:02:20;;;;;;;57.20;36.05;;;26.30;99.90;;;;;;5033558;28;20092;-59
2022/10/21 00:04:47;;;;;;;52.15;33.28;;;26.30;99.90;;;;;;5033373;28;20037;-58
2022/10/21 00:07:13;;;;;;;71.88;52.35;;;26.30;99.90;;;;;;5033635;28;20101;-63
2022/10/21 00:09:40;;;;;;;81.63;57.28;;;26.40;99.90;;;;;;5033300;28;20402;-60
2022/10/21 00:12:07;;;;;;;58.47;42.35;;;26.40;99.90;;;;;;5033116;28;20026;-57
2022/10/21 00:14:34;;;;;;;37.45;27.13;;;26.40;99.90;;;;;;5033380;28;20088;-57
2022/10/21 00:17:00;;;;;;;34.13;25.25;;;26.30;99.90;;;;;;5033232;28;20355;-58
2022/10/21 00:19:27;;;;;;;32.67;22.13;;;26.30;99.90;;;;;;5033317;28;20119;-60
2022/10/21 00:21:53;;;;;;;46.50;37.13;;;26.30;99.90;;;;;;5033358;28;20013;-58
2022/10/21 00:24:20;;;;;;;89.80;66.85;;;26.30;99.90;;;;;;5025210;28;20026;-60
2022/10/21 00:26:49;;;;;;;73.22;51.20;;;26.30;99.90;;;;;;5009180;28;20028;-57
2022/10/21 00:29:16;;;;;;;72.20;53.22;;;26.30;99.90;;;;;;4996828;28;20033;-59
2022/10/21 00:31:42;;;;;;;40.90;31.65;;;26.40;99.90;;;;;;5011151;28;20022;-58
2022/10/21 00:34:09;;;;;;;35.20;23.67;;;26.40;99.90;;;;;;5013155;28;20072;-57
2022/10/21 00:36:35;;;;;;;301.23;203.50;;;26.30;99.90;;;;;;5009629;28;20076;-63
2022/10/21 00:39:02;;;;;;;49.40;33.53;;;26.40;99.90;;;;;;4993594;28;20439;-60
2022/10/21 00:41:28;;;;;;;36.72;24.35;;;26.40;99.90;;;;;;4993683;28;20034;-59
2022/10/21 00:44:00;;;;;;;25.15;17.92;;;26.40;99.90;;;;;;4993805;28;20030;-59
2022/10/21 00:47:06;;;;;;;33.42;22.27;;;26.40;99.90;;;;;;5004298;28;20515;-60
2022/10/21 00:49:36;;;;;;;48.10;38.55;;;26.40;99.90;;;;;;5002531;28;20042;-59
2022/10/21 00:52:07;;;;;;;61.13;51.33;;;26.50;99.90;;;;;;4993690;28;20043;-57
2022/10/21 00:54:35;;;;;;;37.80;25.10;;;26.40;99.90;;;;;;4993559;28;20483;-58
2022/10/21 00:57:02;;;;;;;21.80;18.23;;;26.50;99.90;;;;;;4993636;28;20031;-61
2022/10/21 00:59:34;;;;;;;20.63;16.38;;;26.50;99.90;;;;;;4993550;28;20037;-59
2022/10/21 01:02:01;;;;;;;48.65;43.38;;;26.50;99.90;;;;;;4993744;28;20023;-60
2022/10/21 01:04:27;;;;;;;51.40;45.88;;;26.60;99.90;;;;;;4993542;28;20033;-59
2022/10/21 01:06:55;;;;;;;31.52;25.90;;;26.50;99.90;;;;;;4993705;28;20038;-59
2022/10/21 01:09:22;;;;;;;23.83;15.38;;;26.50;99.90;;;;;;4993702;28;20022;-59
2022/10/21 01:11:49;;;;;;;17.08;13.52;;;26.60;99.90;;;;;;4993462;28;20015;-60
2022/10/21 01:14:17;;;;;;;30.65;23.38;;;26.60;99.90;;;;;;4993547;28;20489;-59
2022/10/21 01:16:47;;;;;;;42.88;32.58;;;26.60;99.90;;;;;;4993347;28;20097;-59
2022/10/21 01:19:29;;;;;;;37.13;26.75;;;26.70;99.90;;;;;;4993418;28;20019;-58
2022/10/21 01:22:21;;;;;;;22.73;17.38;;;26.70;99.90;;;;;;4993558;28;20023;-61
2022/10/21 01:24:56;;;;;;;23.27;17.08;;;26.70;99.90;;;;;;5018024;28;20478;-59
2022/10/21 01:27:28;;;;;;;24.60;18.30;;;26.70;99.90;;;;;;5020516;28;20108;-55
2022/10/21 01:29:57;;;;;;;26.27;18.77;;;26.70;99.90;;;;;;5021498;28;20028;-57
2022/10/21 01:32:26;;;;;;;26.55;17.88;;;26.80;99.90;;;;;;5021637;28;20044;-59
2022/10/21 01:34:58;;;;;;;33.30;18.23;;;26.70;99.90;;;;;;5020542;28;20022;-60
2022/10/21 01:37:40;;;;;;;19.92;15.68;;;26.70;99.90;;;;;;5022189;28;20427;-58
2022/10/21 01:40:13;;;;;;;23.93;16.87;;;26.80;99.90;;;;;;5019290;28;20025;-58
2022/10/21 01:42:51;;;;;;;20.25;16.25;;;27.00;99.90;;;;;;5022368;28;20485;-63
2022/10/21 01:45:26;;;;;;;27.10;18.70;;;27.00;99.90;;;;;;5026421;28;20036;-60
2022/10/21 01:47:57;;;;;;;26.70;17.73;;;27.00;99.90;;;;;;5024395;28;20018;-58
2022/10/21 01:50:30;;;;;;;21.05;15.90;;;27.00;99.90;;;;;;5024945;28;20117;-60
2022/10/21 01:53:02;;;;;;;18.90;14.95;;;26.90;99.90;;;;;;5016565;28;20461;-62
2022/10/21 01:55:31;;;;;;;21.92;16.08;;;27.00;99.90;;;;;;5026247;28;20026;-61
2022/10/21 01:58:03;;;;;;;22.10;15.38;;;27.00;99.90;;;;;;5027345;28;20474;-61
2022/10/21 02:00:31;;;;;;;29.13;18.65;;;27.00;99.90;;;;;;5025189;28;20025;-60
2022/10/21 02:03:01;;;;;;;21.48;17.35;;;27.10;99.90;;;;;;5023610;28;20026;-62
2022/10/21 02:05:31;;;;;;;25.45;18.15;;;27.20;99.90;;;;;;5026035;28;20389;-62
2022/10/21 02:07:57;;;;;;;20.80;16.88;;;27.30;99.90;;;;;;5027392;28;20029;-62
2022/10/21 02:10:29;;;;;;;20.88;15.27;;;27.30;99.90;;;;;;5025790;28;20109;-64
2022/10/21 02:12:59;;;;;;;20.05;13.98;;;27.30;99.90;;;;;;5023802;28;20022;-61
2022/10/21 02:15:29;;;;;;;21.42;14.35;;;27.40;99.90;;;;;;5024950;28;20375;-61
2022/10/21 02:18:04;;;;;;;23.23;15.40;;;27.40;99.90;;;;;;5027041;28;20071;-61
2022/10/21 02:20:36;;;;;;;26.05;17.77;;;27.40;99.90;;;;;;5024965;28;20020;-64
2022/10/21 02:23:06;;;;;;;26.70;19.52;;;27.50;99.90;;;;;;5025612;28;20022;-63
2022/10/21 02:25:36;;;;;;;27.50;20.42;;;27.50;99.90;;;;;;5024954;28;20038;-62
2022/10/21 02:28:03;;;;;;;26.70;18.55;;;27.50;99.90;;;;;;5017164;28;20387;-61
2022/10/21 02:30:41;;;;;;;27.05;18.60;;;27.40;99.90;;;;;;5021111;28;20022;-61
2022/10/21 02:33:19;;;;;;;27.05;18.45;;;27.30;99.90;;;;;;5003411;28;20029;-61
2022/10/21 02:36:06;;;;;;;34.72;17.50;;;27.40;99.90;;;;;;5010721;28;20467;-62
2022/10/21 02:38:41;;;;;;;177.77;111.43;;;27.50;99.90;;;;;;4978947;28;20046;-60
2022/10/21 02:41:12;;;;;;;63.80;41.80;;;27.70;99.90;;;;;;5026534;28;20552;-62
2022/10/21 02:43:46;;;;;;;34.80;26.95;;;27.80;99.90;;;;;;5023991;28;20076;-60
2022/10/21 02:46:14;;;;;;;34.67;20.73;;;28.00;99.90;;;;;;5022908;28;20030;-60
2022/10/21 02:48:44;;;;;;;29.52;20.42;;;28.00;99.90;;;;;;5023153;28;20544;-59
2022/10/21 02:51:11;;;;;;;31.92;20.23;;;28.00;99.90;;;;;;5016154;28;20510;-61
2022/10/21 02:53:37;;;;;;;30.65;21.58;;;28.10;99.90;;;;;;5023178;28;20391;-60
2022/10/21 02:56:05;;;;;;;31.92;20.33;;;28.10;99.90;;;;;;5026540;28;20514;-60
2022/10/21 02:58:31;;;;;;;25.45;18.67;;;28.10;99.90;;;;;;5024912;28;20044;-61
2022/10/21 03:00:58;;;;;;;24.48;16.60;;;28.00;99.90;;;;;;5010001;28;20025;-63
2022/10/21 03:03:25;;;;;;;25.83;17.33;;;28.10;99.90;;;;;;5025278;28;20478;-61
2022/10/21 03:05:52;;;;;;;31.80;18.55;;;28.20;99.90;;;;;;5022929;28;20037;-61
2022/10/21 03:08:18;;;;;;;30.55;20.52;;;28.30;99.90;;;;;;5022711;28;20104;-61
2022/10/21 03:10:49;;;;;;;29.40;20.25;;;28.40;99.90;;;;;;5008720;28;20394;-61
2022/10/21 03:13:15;;;;;;;26.77;17.70;;;28.40;99.90;;;;;;4994565;28;20029;-61
2022/10/21 03:15:42;;;;;;;30.33;18.52;;;28.50;99.90;;;;;;4994756;28;20027;-62
2022/10/21 03:18:09;;;;;;;25.42;18.40;;;28.50;99.90;;;;;;4995105;28;20499;-57
2022/10/21 03:20:35;;;;;;;31.52;19.58;;;28.30;99.90;;;;;;4995018;28;20027;-60
2022/10/21 03:23:02;;;;;;;28.27;18.50;;;28.30;99.90;;;;;;4994738;28;20528;-61
2022/10/21 03:25:28;;;;;;;33.83;18.65;;;28.40;99.90;;;;;;4994769;28;20117;-62
2022/10/21 03:27:55;;;;;;;31.35;18.05;;;28.50;99.90;;;;;;4994945;28;20057;-60
2022/10/21 03:30:21;;;;;;;26.65;19.05;;;28.60;99.90;;;;;;4994792;28;20109;-61
2022/10/21 03:32:48;;;;;;;27.65;19.95;;;28.60;99.90;;;;;;4994666;28;20513;-61
2022/10/21 03:35:14;;;;;;;27.50;18.33;;;28.60;99.90;;;;;;4994563;28;20018;-62
2022/10/21 03:37:41;;;;;;;26.63;18.42;;;28.70;99.90;;;;;;4994825;28;20076;-58
2022/10/21 03:40:08;;;;;;;24.63;18.15;;;28.70;99.90;;;;;;4994446;28;20030;-64
2022/10/21 03:42:34;;;;;;;33.85;20.52;;;29.10;99.90;;;;;;4994064;28;20487;-57
2022/10/21 03:45:01;;;;;;;30.67;21.25;;;29.20;99.90;;;;;;4994496;28;20088;-59
2022/10/21 03:47:27;;;;;;;28.88;18.85;;;29.10;99.90;;;;;;4994302;28;20120;-58
2022/10/21 03:49:54;;;;;;;29.65;20.35;;;29.00;99.90;;;;;;4994465;28;20035;-61
2022/10/21 03:52:20;;;;;;;28.48;18.85;;;29.10;99.90;;;;;;4998252;28;20042;-60
2022/10/21 03:54:47;;;;;;;34.83;24.80;;;28.90;99.90;;;;;;5000459;28;20053;-60
2022/10/21 03:57:13;;;;;;;64.50;40.95;;;28.90;99.90;;;;;;4994345;28;20018;-62
2022/10/21 03:59:40;;;;;;;60.40;38.83;;;28.90;99.90;;;;;;4994249;28;20022;-62
2022/10/21 04:02:06;;;;;;;29.77;19.33;;;28.90;99.90;;;;;;4994142;28;20014;-61
2022/10/21 04:04:33;;;;;;;28.45;19.25;;;29.10;99.90;;;;;;4994063;28;20361;-60
2022/10/21 04:06:59;;;;;;;24.80;17.98;;;29.20;99.90;;;;;;5021904;28;20018;-62
2022/10/21 04:09:27;;;;;;;28.77;18.65;;;29.20;99.90;;;;;;5022247;28;20017;-62
2022/10/21 04:11:53;;;;;;;25.20;17.70;;;29.30;99.90;;;;;;5023376;28;20521;-60
2022/10/21 04:14:20;;;;;;;22.00;16.90;;;29.30;99.90;;;;;;5012939;28;20030;-61
2022/10/21 04:16:46;;;;;;;36.10;18.73;;;29.20;99.90;;;;;;5012023;28;20386;-60
2022/10/21 04:19:18;;;;;;;29.58;17.75;;;29.20;99.90;;;;;;5012437;28;20080;-60
2022/10/21 04:21:45;;;;;;;27.70;17.55;;;29.20;99.90;;;;;;5010504;28;20029;-60
2022/10/21 04:24:12;;;;;;;27.33;17.73;;;29.20;99.90;;;;;;5014668;28;20040;-60
2022/10/21 04:26:41;;;;;;;28.75;18.80;;;29.20;99.90;;;;;;5018041;28;20030;-61
2022/10/21 04:29:08;;;;;;;29.20;19.83;;;29.20;99.90;;;;;;5020445;28;20061;-61
2022/10/21 04:31:34;;;;;;;25.45;17.73;;;29.30;99.90;;;;;;5018187;28;20505;-61
2022/10/21 04:34:01;;;;;;;25.17;16.20;;;29.30;99.90;;;;;;5027401;28;20093;-61
2022/10/21 04:36:28;;;;;;;27.60;19.15;;;29.30;99.90;;;;;;5023231;28;20427;-61
2022/10/21 04:38:54;;;;;;;32.55;17.40;;;29.20;99.90;;;;;;5022907;28;20028;-61
2022/10/21 04:41:21;;;;;;;34.72;21.98;;;29.30;99.90;;;;;;5021406;28;20041;-61
2022/10/21 04:43:47;;;;;;;29.02;17.27;;;29.20;99.90;;;;;;5020003;28;20018;-58
2022/10/21 04:46:15;;;;;;;25.92;15.32;;;29.20;99.90;;;;;;5022436;28;20041;-61
2022/10/21 04:48:43;;;;;;;25.15;15.00;;;29.30;99.90;;;;;;5023615;28;20120;-61
2022/10/21 04:51:09;;;;;;;23.48;13.93;;;29.30;99.90;;;;;;5024922;28;20041;-61
2022/10/21 04:53:36;;;;;;;22.33;14.45;;;29.40;99.90;;;;;;5015335;28;20482;-61
2022/10/21 04:56:02;;;;;;;23.67;13.43;;;29.50;99.90;;;;;;5013872;28;20054;-61
2022/10/21 04:58:29;;;;;;;24.25;14.65;;;29.50;99.90;;;;;;5014509;28;20018;-60
2022/10/21 05:00:55;;;;;;;19.58;12.85;;;29.50;99.90;;;;;;5025692;28;20021;-60
2022/10/21 05:03:22;;;;;;;19.55;12.57;;;29.50;99.90;;;;;;5034297;28;20048;-60
2022/10/21 05:05:52;;;;;;;17.65;10.82;;;29.50;99.90;;;;;;5016108;28;20076;-59
2022/10/21 05:08:19;;;;;;;15.57;11.05;;;29.60;99.90;;;;;;5015591;28;20026;-60
2022/10/21 05:10:46;;;;;;;16.95;10.93;;;29.70;99.90;;;;;;5015680;28;20030;-59
2022/10/21 05:13:13;;;;;;;18.35;11.82;;;29.70;99.90;;;;;;5015381;28;20022;-61
2022/10/21 05:15:39;;;;;;;21.75;13.75;;;29.70;99.90;;;;;;5002903;28;20033;-60
2022/10/21 05:18:06;;;;;;;20.30;11.95;;;29.70;99.90;;;;;;5020202;28;20026;-58
2022/10/21 05:20:32;;;;;;;16.13;11.48;;;29.70;99.90;;;;;;5027070;28;20013;-59
2022/10/21 05:22:59;;;;;;;13.15;9.88;;;29.80;99.90;;;;;;5026824;28;20378;-57
2022/10/21 05:25:25;;;;;;;21.08;11.32;;;29.80;99.90;;;;;;5023177;28;20084;-56
2022/10/21 05:27:52;;;;;;;19.38;11.70;;;29.80;99.90;;;;;;5021846;28;20529;-58
2022/10/21 05:30:18;;;;;;;17.52;10.88;;;29.80;99.90;;;;;;5015601;28;20022;-62
2022/10/21 05:32:45;;;;;;;24.35;13.55;;;30.00;99.90;;;;;;5014510;28;20097;-54
2022/10/21 05:35:11;;;;;;;24.35;11.93;;;29.90;99.90;;;;;;5012117;28;20149;-54
2022/10/21 05:37:38;;;;;;;21.38;11.82;;;29.80;99.90;;;;;;5023685;28;20022;-56
2022/10/21 05:40:05;;;;;;;16.40;9.85;;;29.80;99.90;;;;;;5013530;28;20057;-60
2022/10/21 05:42:32;;;;;;;19.52;10.90;;;29.80;99.90;;;;;;5017455;28;20080;-58
2022/10/21 05:44:58;;;;;;;18.38;9.88;;;29.90;99.90;;;;;;5018294;28;20022;-58
2022/10/21 05:47:28;;;;;;;16.67;11.60;;;30.00;99.90;;;;;;5006196;28;20022;-58
2022/10/21 05:49:54;;;;;;;17.48;11.07;;;30.10;99.90;;;;;;5003921;28;20068;-58
2022/10/21 05:52:21;;;;;;;17.60;11.00;;;30.20;99.90;;;;;;5012237;28;20555;-58
2022/10/21 05:54:47;;;;;;;17.73;10.45;;;30.20;99.90;;;;;;5011402;28;20041;-57
2022/10/21 05:57:14;;;;;;;18.45;9.52;;;30.20;99.90;;;;;;5016571;28;20033;-59
2022/10/21 05:59:40;;;;;;;160.95;131.40;;;30.20;99.90;;;;;;5016408;28;20033;-58
2022/10/21 06:02:09;;;;;;;80.45;65.70;;;30.20;99.90;;;;;;5016159;28;20433;-56
2022/10/21 06:04:35;;;;;;;25.50;20.90;;;30.30;99.90;;;;;;5016116;28;20022;-57
2022/10/21 06:07:02;;;;;;;23.95;15.52;;;30.40;99.90;;;;;;5015892;28;20037;-58
2022/10/21 06:09:28;;;;;;;13.80;10.45;;;30.40;99.90;;;;;;5015942;28;20467;-59
2022/10/21 06:11:56;;;;;;;18.02;12.73;;;30.30;99.90;;;;;;5016161;28;20084;-57
2022/10/21 06:14:24;;;;;;;19.60;12.00;;;30.30;99.90;;;;;;5015892;28;20026;-59
2022/10/21 06:16:50;;;;;;;16.80;11.27;;;30.40;99.90;;;;;;5015823;28;20053;-59
2022/10/21 06:19:17;;;;;;;17.50;12.18;;;30.30;99.90;;;;;;5015986;28;20154;-59
2022/10/21 06:21:43;;;;;;;20.27;14.70;;;30.30;99.90;;;;;;5015755;28;20076;-59
2022/10/21 06:24:10;;;;;;;22.08;12.57;;;30.40;99.90;;;;;;5013190;28;20525;-58
2022/10/21 06:26:36;;;;;;;21.65;13.45;;;30.50;99.90;;;;;;4997981;28;20431;-58
2022/10/21 06:29:03;;;;;;;26.17;16.10;;;30.40;99.90;;;;;;4995012;28;20110;-58
2022/10/21 06:31:30;;;;;;;25.55;13.73;;;30.50;99.90;;;;;;4995926;28;20027;-57
2022/10/21 06:33:56;;;;;;;18.63;13.20;;;30.60;99.90;;;;;;4996005;28;20026;-59
2022/10/21 06:36:23;;;;;;;19.35;13.63;;;30.60;99.90;;;;;;4995988;28;20050;-58
2022/10/21 06:38:50;;;;;;;16.10;13.48;;;30.60;99.90;;;;;;4995718;28;20080;-57
2022/10/21 06:41:17;;;;;;;20.42;13.45;;;30.70;99.90;;;;;;4995799;28;20034;-61
2022/10/21 06:43:44;;;;;;;18.17;13.88;;;30.70;99.90;;;;;;4995833;28;20498;-58
2022/10/21 06:46:13;;;;;;;34.13;22.13;;;30.70;99.90;;;;;;5001648;28;20402;-57
2022/10/21 06:48:40;;;;;;;19.48;14.00;;;30.70;99.90;;;;;;5005254;28;20489;-57
2022/10/21 06:51:14;;;;;;;28.63;14.55;;;30.80;99.90;;;;;;5014861;28;20100;-56
2022/10/21 06:53:42;;;;;;;20.40;14.15;;;30.80;99.90;;;;;;5014784;28;20076;-59
2022/10/21 06:56:15;;;;;;;75.43;43.00;;;30.80;99.90;;;;;;5015118;28;20537;-59
2022/10/21 06:58:45;;;;;;;35.60;26.60;;;30.80;99.90;;;;;;5015572;28;20029;-57
2022/10/21 07:01:15;;;;;;;23.58;16.65;;;30.90;99.90;;;;;;5013398;28;21335;-61
2022/10/21 07:03:42;;;;;;;53.15;40.65;;;30.90;99.90;;;;;;5008359;28;20033;-58
2022/10/21 07:06:09;;;;;;;25.60;19.52;;;31.00;99.90;;;;;;5019027;28;20490;-61
2022/10/21 07:08:36;;;;;;;27.95;19.58;;;30.90;99.90;;;;;;5015910;28;20113;-58
2022/10/21 07:11:03;;;;;;;21.00;16.55;;;31.00;99.90;;;;;;5013685;28;20036;-58
2022/10/21 07:13:29;;;;;;;27.30;17.73;;;30.90;99.90;;;;;;5024194;28;20022;-60
2022/10/21 07:16:16;;;;;;;25.70;17.23;;;30.90;99.90;;;;;;5018563;28;20033;-59
2022/10/21 07:18:43;;;;;;;28.45;20.10;;;30.90;99.90;;;;;;5011404;28;20100;-61
2022/10/21 07:21:16;;;;;;;26.08;17.90;;;30.80;99.90;;;;;;5006114;28;20025;-60
2022/10/21 07:23:45;;;;;;;20.17;15.93;;;30.90;99.90;;;;;;5000279;28;20026;-61
2022/10/21 07:26:12;;;;;;;179.00;159.32;;;30.80;99.90;;;;;;5006349;28;20018;-61
2022/10/21 07:28:40;;;;;;;28.77;20.27;;;30.80;99.90;;;;;;5007971;28;20048;-63
2022/10/21 07:31:07;;;;;;;25.15;16.85;;;30.80;99.90;;;;;;5011472;28;20481;-61
2022/10/21 07:33:35;;;;;;;22.50;17.27;;;30.70;99.90;;;;;;5006167;28;20033;-57
2022/10/21 07:36:07;;;;;;;20.10;15.63;;;30.70;99.90;;;;;;5006512;28;20030;-61
2022/10/21 07:38:34;;;;;;;16.45;11.55;;;30.70;99.90;;;;;;5008754;28;20050;-62
2022/10/21 07:41:01;;;;;;;21.90;13.10;;;30.60;99.90;;;;;;5017811;28;20026;-61
2022/10/21 07:43:28;;;;;;;23.48;14.75;;;30.50;99.90;;;;;;5019421;28;20482;-60
2022/10/21 07:45:57;;;;;;;20.80;15.32;;;30.50;99.90;;;;;;5019179;28;20057;-59
2022/10/21 07:48:25;;;;;;;23.80;14.88;;;30.50;99.90;;;;;;5018786;28;20030;-61
2022/10/21 07:50:51;;;;;;;22.60;13.85;;;30.50;99.90;;;;;;5018464;28;20022;-61
2022/10/21 07:53:20;;;;;;;26.70;15.77;;;30.40;99.90;;;;;;5018782;28;20039;-59
2022/10/21 07:55:46;;;;;;;20.38;15.88;;;30.30;99.90;;;;;;5016931;28;20034;-63
2022/10/21 07:58:13;;;;;;;26.88;15.18;;;30.30;99.90;;;;;;5021544;28;20022;-61
2022/10/21 08:00:43;;;;;;;19.60;13.63;;;30.40;99.90;;;;;;5020039;28;20014;-61
2022/10/21 08:03:11;;;;;;;18.63;12.38;;;30.50;99.90;;;;;;5020218;28;20122;-58
2022/10/21 08:05:40;;;;;;;23.42;13.05;;;30.60;99.90;;;;;;5017771;28;20089;-56
2022/10/21 08:08:07;;;;;;;15.77;11.13;;;30.50;99.90;;;;;;5020271;28;20021;-59
2022/10/21 08:10:39;;;;;;;18.50;12.27;;;30.20;99.90;;;;;;5020230;28;20477;-60
2022/10/21 08:13:05;;;;;;;;;;;30.10;99.90;;;;;;5020481;28;20037;-60
2022/10/21 08:15:31;;;;;;;15.77;12.45;;;30.10;99.90;;;;;;5018863;28;19974;-60
2022/10/21 08:17:58;;;;;;;19.42;11.75;;;30.10;99.90;;;;;;5016512;28;20037;-57
2022/10/21 08:20:24;;;;;;;24.20;14.32;;;30.20;99.90;;;;;;5018324;28;20021;-64
2022/10/21 08:22:51;;;;;;;21.42;12.23;;;30.30;99.90;;;;;;5021055;28;20026;-62
2022/10/21 08:25:17;;;;;;;21.80;14.98;;;30.40;99.90;;;;;;5018897;28;20033;-59
2022/10/21 08:27:44;;;;;;;76.95;56.67;;;30.40;99.90;;;;;;5007977;28;20038;-61
2022/10/21 08:30:10;;;;;;;23.23;15.25;;;30.50;99.90;;;;;;5002430;28;20108;-61
2022/10/21 08:32:37;;;;;;;24.98;14.75;;;30.30;99.90;;;;;;5003735;28;20022;-57
2022/10/21 08:35:04;;;;;;;32.75;14.27;;;30.30;99.90;;;;;;5011377;28;20025;-63
2022/10/21 08:37:31;;;;;;;20.80;13.35;;;30.30;99.90;;;;;;5013410;28;20028;-57
2022/10/21 08:39:57;;;;;;;20.02;12.45;;;30.20;99.90;;;;;;5006369;28;20248;-60
2022/10/21 08:42:24;;;;;;;23.80;13.48;;;30.20;99.90;;;;;;5022519;28;21000;-58
2022/10/21 08:45:02;;;;;;;23.80;13.90;;;30.20;99.90;;;;;;5020790;28;20018;-59
2022/10/21 08:47:33;;;;;;;24.65;13.35;;;30.20;99.90;;;;;;5001914;28;20033;-60
2022/10/21 08:50:09;;;;;;;22.73;13.05;;;30.10;99.90;;;;;;4999058;28;20480;-59
2022/10/21 08:52:41;;;;;;;26.73;18.55;;;30.10;99.90;;;;;;5014740;28;20048;-60
2022/10/21 08:55:19;;;;;;;216.75;142.93;;;30.20;99.90;;;;;;5016973;28;20026;-61
2022/10/21 08:57:47;;;;;;;27.83;19.67;;;30.30;99.90;;;;;;5008054;28;20035;-61
2022/10/21 09:00:18;;;;;;;22.23;14.50;;;30.30;99.90;;;;;;5011353;28;20033;-60
2022/10/21 09:02:47;;;;;;;32.88;16.27;;;30.20;99.90;;;;;;5011383;28;20018;-61
2022/10/21 09:05:18;;;;;;;29.15;16.95;;;30.00;99.90;;;;;;5009668;28;20022;-57
2022/10/21 09:07:48;;;;;;;30.75;14.55;;;29.90;99.90;;;;;;5000032;28;20507;-57
2022/10/21 09:10:21;;;;;;;26.17;14.52;;;30.00;99.90;;;;;;5010699;28;20034;-59
2022/10/21 09:12:57;;;;;;;74.78;42.38;;;30.00;99.90;;;;;;5027116;28;20038;-56
2022/10/21 09:15:27;;;;;;;84.70;50.92;;;30.00;99.90;;;;;;5022506;28;20022;-57
2022/10/21 09:18:03;;;;;;;85.25;48.60;;;30.00;99.90;;;;;;5024542;28;20022;-58
2022/10/21 09:20:52;;;;;;;64.35;33.83;;;30.00;99.90;;;;;;5026015;28;20018;-56
2022/10/21 09:23:23;;;;;;;106.15;65.70;;;30.00;99.90;;;;;;4998713;28;20029;-61
2022/10/21 09:25:50;;;;;;;145.18;87.35;;;30.10;99.90;;;;;;5024355;28;20048;-60
2022/10/21 09:28:17;;;;;;;402.10;273.67;;;30.00;99.90;;;;;;5022415;28;20021;-59
2022/10/21 09:30:44;;;;;;;67.18;39.47;;;30.00;99.90;;;;;;5025896;28;20543;-58
2022/10/21 09:33:33;;;;;;;42.95;24.70;;;30.00;99.90;;;;;;5025056;28;20160;-59
2022/10/21 09:36:07;;;;;;;60.72;37.33;;;29.90;99.90;;;;;;5024581;28;20040;-60
2022/10/21 09:38:40;;;;;;;90.07;43.33;;;30.00;99.90;;;;;;5024437;28;20026;-58
2022/10/21 09:41:09;;;;;;;47.45;26.88;;;30.00;99.90;;;;;;5025392;28;20014;-58
2022/10/21 09:43:36;;;;;;;46.20;27.30;;;30.00;99.90;;;;;;5021926;28;20028;-59
2022/10/21 09:46:03;;;;;;;41.05;26.63;;;30.10;99.90;;;;;;5024404;28;20030;-58
2022/10/21 09:48:51;;;;;;;40.10;21.17;;;30.10;99.90;;;;;;5024909;28;20025;-59
2022/10/21 09:51:24;;;;;;;32.63;20.52;;;29.90;99.90;;;;;;5015968;28;20050;-58
2022/10/21 09:53:57;;;;;;;65.78;38.28;;;29.90;99.90;;;;;;5024226;28;20108;-60
2022/10/21 09:56:30;;;;;;;54.45;29.90;;;30.00;99.90;;;;;;5018332;28;20053;-59
2022/10/21 09:59:01;;;;;;;60.95;35.22;;;30.00;99.90;;;;;;5016303;28;20018;-60
2022/10/21 10:01:28;;;;;;;73.35;41.35;;;30.00;99.90;;;;;;5016013;28;20026;-61
2022/10/21 10:03:55;;;;;;;85.95;45.25;;;30.00;99.90;;;;;;5015303;28;20025;-58
2022/10/21 10:06:27;;;;;;;86.75;47.85;;;30.00;99.90;;;;;;5005290;28;20403;-60
2022/10/21 10:09:14;;;;;;;146.38;80.18;;;29.90;99.90;;;;;;5020717;28;20057;-61
2022/10/21 10:11:55;;;;;;;155.40;79.57;;;29.90;99.90;;;;;;5006981;28;20030;-60
2022/10/21 10:14:25;;;;;;;157.23;77.30;;;29.90;99.90;;;;;;5015320;28;20041;-59
2022/10/21 10:16:51;;;;;;;146.40;75.03;;;29.80;99.90;;;;;;5009101;28;20030;-59
2022/10/21 10:19:24;;;;;;;121.45;61.33;;;29.90;99.90;;;;;;5015394;28;20479;-62
2022/10/21 10:22:15;;;;;;;99.78;50.55;;;29.90;99.90;;;;;;5013434;28;20087;-61
2022/10/21 10:24:43;;;;;;;117.32;77.60;;;29.90;99.90;;;;;;5019438;28;20033;-58
2022/10/21 10:27:19;;;;;;;124.80;75.88;;;29.80;99.90;;;;;;5020163;28;20041;-62
2022/10/21 10:29:52;;;;;;;128.23;79.97;;;29.90;99.90;;;;;;5023482;28;20018;-61
2022/10/21 10:32:22;;;;;;;102.38;59.75;;;29.80;99.90;;;;;;5020604;28;20156;-61
2022/10/21 10:34:54;;;;;;;140.52;74.35;;;29.80;99.90;;;;;;5024986;28;20033;-59
2022/10/21 10:37:22;;;;;;;;;;;29.80;99.90;;;;;;5014473;28;20149;-60
2022/10/21 10:39:52;;;;;;;173.05;94.55;;;29.80;99.90;;;;;;5022461;28;19905;-59
2022/10/21 10:42:26;;;;;;;267.55;132.23;;;29.70;99.90;;;;;;5020744;28;20493;-59
2022/10/21 10:44:58;;;;;;;251.05;124.55;;;29.70;99.90;;;;;;5023370;28;20021;-59
2022/10/21 10:47:34;;;;;;;238.32;123.03;;;29.80;99.90;;;;;;5018099;28;20036;-64
2022/10/21 10:50:01;;;;;;;221.25;122.75;;;29.80;99.90;;;;;;5025202;28;20014;-59
2022/10/21 10:52:27;;;;;;;189.82;104.07;;;29.80;99.90;;;;;;5019651;28;20072;-62
2022/10/21 10:54:59;;;;;;;182.52;96.78;;;29.70;99.90;;;;;;5020531;28;20068;-63
2022/10/21 10:57:27;;;;;;;180.40;92.13;;;29.70;99.90;;;;;;5016750;28;20018;-60
2022/10/21 11:00:16;;;;;;;199.90;96.53;;;29.80;99.90;;;;;;5022361;28;20036;-59
2022/10/21 11:02:48;;;;;;;180.82;86.45;;;29.80;99.90;;;;;;5016849;28;20037;-62
2022/10/21 11:05:20;;;;;;;249.55;104.95;;;29.70;99.90;;;;;;5022203;28;20065;-60
2022/10/21 11:07:51;;;;;;;234.57;100.68;;;29.70;99.90;;;;;;5023929;28;20017;-60
2022/10/21 11:10:26;;;;;;;226.68;88.88;;;29.60;99.90;;;;;;5016413;28;20049;-58
2022/10/21 11:12:53;;;;;;;251.30;113.13;;;29.60;99.90;;;;;;5013540;28;20029;-60
2022/10/21 11:15:29;;;;;;;237.38;113.88;;;29.60;99.90;;;;;;5012831;28;20029;-60
2022/10/21 11:18:07;;;;;;;199.35;98.03;;;29.60;99.90;;;;;;4996912;28;20031;-57
2022/10/21 11:20:40;;;;;;;334.88;140.20;;;29.60;99.90;;;;;;5007390;28;20015;-60
2022/10/21 11:23:12;;;;;;;321.17;137.13;;;29.50;99.90;;;;;;5016066;28;20013;-60
2022/10/21 11:25:48;;;;;;;338.13;149.48;;;29.50;99.90;;;;;;5019378;28;20478;-58
2022/10/21 11:28:24;;;;;;;176.35;89.45;;;29.40;99.90;;;;;;5019761;28;20399;-58
2022/10/21 11:31:07;;;;;;;122.55;66.63;;;29.30;99.90;;;;;;5010748;28;20030;-58
2022/10/21 11:33:43;;;;;;;120.70;66.18;;;29.30;99.90;;;;;;5018870;28;20021;-58
2022/10/21 11:36:19;;;;;;;137.00;79.47;;;29.30;99.90;;;;;;5021563;28;20057;-59
2022/10/21 11:38:55;;;;;;;62.72;36.53;;;29.30;99.90;;;;;;5014435;28;20902;-61
2022/10/21 11:41:24;;;;;;;69.45;39.47;;;29.20;99.90;;;;;;5003833;28;20029;-60
2022/10/21 11:43:50;;;;;;;56.85;37.25;;;29.10;99.90;;;;;;5007196;28;20026;-65
2022/10/21 11:46:17;;;;;;;65.47;40.58;;;28.90;99.90;;;;;;5010906;28;20021;-63
2022/10/21 11:48:52;;;;;;;97.82;53.40;;;28.90;99.90;;;;;;5009485;28;20022;-61
2022/10/21 11:51:24;;;;;;;82.32;42.13;;;29.00;99.90;;;;;;5006749;28;20572;-56
2022/10/21 11:53:53;;;;;;;108.72;54.90;;;28.90;99.90;;;;;;5014033;28;20108;-57
2022/10/21 11:56:45;;;;;;;58.85;34.03;;;28.90;99.90;;;;;;5009528;28;20026;-59
2022/10/21 11:59:19;;;;;;;;;;;28.90;99.90;;;;;;5005448;28;20094;-61
2022/10/21 12:01:52;;;;;;;211.68;111.45;;;28.90;99.90;;;;;;5007770;28;19916;-59
2022/10/21 12:04:41;;;;;;;128.90;71.57;;;28.90;99.90;;;;;;5010461;28;20482;-62
2022/10/21 12:07:13;;;;;;;68.72;35.47;;;28.80;99.90;;;;;;5011044;28;20107;-64
2022/10/21 12:09:43;;;;;;;109.55;58.10;;;28.70;99.90;;;;;;5020563;28;20379;-61
2022/10/21 12:12:14;;;;;;;106.15;44.90;;;28.70;99.90;;;;;;5020661;28;20045;-64
2022/10/21 12:14:49;;;;;;;93.35;46.45;;;28.60;99.90;;;;;;5018504;28;20071;-65
2022/10/21 12:17:21;;;;;;;104.47;45.35;;;28.70;99.90;;;;;;5017665;28;20028;-63
2022/10/21 12:19:50;;;;;;;;;;;28.60;99.90;;;;;;5016224;28;20036;-66
2022/10/21 12:22:16;;;;;;;103.78;54.95;;;28.60;99.90;;;;;;5017729;28;19909;-59
2022/10/21 12:24:52;;;;;;;50.90;27.20;;;28.60;99.90;;;;;;5019739;28;20467;-65
2022/10/21 12:27:23;;;;;;;49.78;29.27;;;28.50;99.90;;;;;;5017974;28;20034;-62
2022/10/21 12:29:52;;;;;;;105.38;67.60;;;28.40;99.90;;;;;;5021812;28;20028;-64
2022/10/21 12:32:27;;;;;;;140.23;82.88;;;28.50;99.90;;;;;;5020333;28;20037;-62
2022/10/21 12:34:54;;;;;;;41.97;24.13;;;28.40;99.90;;;;;;5011710;28;20091;-62
2022/10/21 12:37:26;;;;;;;28.90;18.98;;;28.30;99.90;;;;;;5002459;28;20426;-65
2022/10/21 12:40:10;;;;;;;49.22;28.75;;;28.10;99.90;;;;;;5013637;28;20031;-59